createdAt,value
2017-09-17T03:32:16.294Z,74.70
2017-09-17T03:34:43.868Z,77.90
2017-09-17T03:37:12.209Z,87.80
2017-09-17T03:39:39.821Z,87.80
2017-09-17T03:42:07.397Z,89.60
2017-09-17T03:44:34.976Z,90.30
2017-09-17T03:47:02.598Z,83.00
2017-09-17T03:49:30.179Z,81.80
2017-09-17T03:51:57.750Z,79.50
2017-09-17T03:54:25.370Z,80.80
2017-09-17T03:56:52.942Z,82.50
2017-09-17T03:59:20.514Z,83.80
2017-09-17T04:01:48.335Z,86.10
2017-09-17T04:04:16.677Z,94.60
2017-09-17T04:06:44.253Z,94.70
2017-09-17T04:09:12.027Z,99.90
2017-09-17T04:11:40.378Z,99.90
2017-09-17T04:14:07.953Z,99.90
2017-09-17T04:16:35.549Z,99.90
2017-09-17T04:19:03.122Z,91.90
2017-09-17T04:21:30.942Z,87.80
2017-09-17T04:23:59.282Z,85.30
2017-09-17T04:26:26.858Z,85.20
2017-09-17T04:28:54.509Z,86.60
2017-09-17T04:31:22.078Z,96.30
2017-09-17T04:33:49.649Z,97.30
2017-09-17T04:36:17.245Z,99.90
2017-09-17T04:38:44.826Z,99.90
2017-09-17T04:41:12.537Z,94.70
2017-09-17T04:43:40.877Z,81.20
2017-09-17T04:46:08.458Z,81.40
2017-09-17T04:48:36.074Z,81.60
2017-09-17T04:51:03.650Z,80.20
2017-09-17T04:53:31.241Z,79.60
2017-09-17T04:55:59.826Z,83.10
2017-09-17T04:58:28.170Z,85.20
2017-09-17T05:00:56.514Z,86.30
2017-09-17T05:03:24.345Z,86.40
2017-09-17T05:05:52.690Z,91.60
2017-09-17T05:08:20.270Z,91.60
2017-09-17T05:10:47.898Z,92.60
2017-09-17T05:13:15.473Z,96.00
2017-09-17T05:15:43.048Z,95.30
2017-09-17T05:18:10.654Z,94.70
2017-09-17T05:20:38.234Z,84.90
2017-09-17T05:23:06.603Z,84.70
2017-09-17T05:25:34.181Z,84.70
2017-09-17T05:28:01.754Z,97.40
2017-09-17T05:30:29.355Z,97.00
2017-09-17T05:32:56.930Z,83.60
2017-09-17T05:35:24.532Z,79.90
2017-09-17T05:37:52.118Z,81.70
2017-09-17T05:40:19.715Z,84.80
2017-09-17T05:42:47.315Z,86.80
2017-09-17T05:45:15.675Z,87.00
2017-09-17T05:47:43.259Z,87.00
2017-09-17T05:50:11.809Z,88.40
2017-09-17T05:52:39.382Z,88.90
2017-09-17T05:55:06.962Z,90.40
2017-09-17T05:57:35.430Z,91.60
2017-09-17T06:00:03.814Z,95.40
2017-09-17T06:02:32.150Z,96.30
2017-09-17T06:04:59.741Z,96.30
2017-09-17T06:07:28.117Z,90.10
2017-09-17T06:09:56.458Z,89.40
2017-09-17T06:12:24.183Z,89.40
2017-09-17T06:14:51.822Z,88.90
2017-09-17T06:17:20.161Z,90.20
2017-09-17T06:19:47.958Z,90.20
2017-09-17T06:22:16.306Z,90.40
2017-09-17T06:24:43.893Z,90.40
2017-09-17T06:27:12.378Z,90.50
2017-09-17T06:29:40.726Z,90.70
2017-09-17T06:32:08.413Z,90.70
2017-09-17T06:34:36.835Z,91.20
2017-09-17T06:37:04.453Z,91.20
2017-09-17T06:39:32.803Z,91.20
2017-09-17T06:42:00.397Z,91.20
2017-09-17T06:44:28.735Z,90.40
2017-09-17T06:46:56.362Z,90.40
2017-09-17T06:49:23.933Z,90.90
2017-09-17T06:51:51.505Z,90.70
2017-09-17T06:54:19.137Z,90.70
2017-09-17T06:56:46.717Z,90.60
2017-09-17T06:59:14.298Z,91.10
2017-09-17T07:01:41.904Z,91.20
2017-09-17T07:04:09.534Z,91.60
2017-09-17T07:06:37.873Z,91.90
2017-09-17T07:09:05.474Z,91.90
2017-09-17T07:11:33.813Z,95.40
2017-09-17T07:14:02.434Z,93.10
2017-09-17T07:16:30.773Z,93.30
2017-09-17T07:18:58.358Z,93.30
2017-09-17T07:21:26.733Z,88.20
2017-09-17T07:23:54.358Z,88.20
2017-09-17T07:26:22.734Z,88.40
2017-09-17T07:28:50.325Z,88.40
2017-09-17T07:31:18.062Z,90.00
2017-09-17T07:33:45.645Z,90.40
2017-09-17T07:36:13.997Z,88.80
2017-09-17T07:38:41.750Z,88.80
2017-09-17T07:41:09.324Z,89.50
2017-09-17T07:43:36.945Z,89.10
2017-09-17T07:46:04.522Z,89.70
2017-09-17T07:48:32.098Z,89.80
2017-09-17T07:50:59.706Z,90.40
2017-09-17T07:53:27.294Z,91.40
2017-09-17T07:55:54.902Z,91.70
2017-09-17T07:58:23.247Z,91.90
2017-09-17T08:00:50.830Z,91.90
2017-09-17T08:03:18.478Z,91.60
2017-09-17T08:05:46.054Z,91.20
2017-09-17T08:08:13.629Z,91.10
2017-09-17T08:10:41.993Z,90.30
2017-09-17T08:13:10.343Z,90.40
2017-09-17T08:15:37.929Z,90.40
2017-09-17T08:18:06.297Z,89.10
2017-09-17T08:20:34.069Z,89.10
2017-09-17T08:23:02.415Z,89.50
2017-09-17T08:25:29.998Z,89.40
2017-09-17T08:27:57.649Z,87.50
2017-09-17T08:30:25.252Z,86.70
2017-09-17T08:32:52.834Z,87.10
2017-09-17T08:35:20.437Z,85.90
2017-09-17T08:37:48.019Z,86.10
2017-09-17T08:40:15.646Z,86.60
2017-09-17T08:42:43.230Z,85.20
2017-09-17T08:45:11.573Z,83.10
2017-09-17T08:47:39.179Z,82.90
2017-09-17T08:50:11.730Z,83.20
2017-09-17T08:52:40.139Z,82.50
2017-09-17T08:55:07.722Z,82.50
2017-09-17T08:57:35.302Z,83.60
2017-09-17T09:00:03.926Z,83.50
2017-09-17T09:02:31.554Z,80.30
2017-09-17T09:04:59.133Z,79.80
2017-09-17T09:07:27.729Z,78.60
2017-09-17T09:09:55.388Z,78.60
2017-09-17T09:12:22.973Z,77.80
2017-09-17T09:14:50.554Z,80.10
2017-09-17T09:17:18.175Z,84.00
2017-09-17T09:19:45.759Z,80.50
2017-09-17T09:22:13.415Z,79.20
2017-09-17T09:24:41.050Z,80.30
2017-09-17T09:27:08.634Z,80.60
2017-09-17T09:29:36.220Z,81.70
2017-09-17T09:32:03.842Z,80.20
2017-09-17T09:34:31.422Z,79.70
2017-09-17T09:36:59.043Z,80.10
2017-09-17T09:39:26.886Z,81.70
2017-09-17T09:41:55.246Z,80.50
2017-09-17T09:44:22.830Z,80.50
2017-09-17T09:46:50.461Z,81.10
2017-09-17T09:49:18.045Z,81.10
2017-09-17T09:51:46.400Z,79.60
2017-09-17T09:54:14.086Z,79.50
2017-09-17T09:56:42.431Z,81.40
2017-09-17T09:59:10.022Z,81.30
2017-09-17T10:01:37.637Z,81.70
2017-09-17T10:04:05.218Z,78.70
2017-09-17T10:06:32.808Z,78.10
2017-09-17T10:09:00.626Z,78.60
2017-09-17T10:11:28.212Z,77.20
2017-09-17T10:13:56.563Z,77.30
2017-09-17T10:16:24.180Z,77.20
2017-09-17T10:18:51.813Z,76.60
2017-09-17T10:21:20.161Z,75.30
2017-09-17T10:23:47.744Z,75.40
2017-09-17T10:26:16.118Z,73.20
2017-09-17T10:28:44.475Z,74.70
2017-09-17T10:31:12.063Z,74.60
2017-09-17T10:33:39.694Z,71.90
2017-09-17T10:36:07.282Z,72.40
2017-09-17T10:38:34.866Z,71.70
2017-09-17T10:41:02.694Z,69.60
2017-09-17T10:43:31.045Z,68.70
2017-09-17T10:45:58.634Z,68.70
2017-09-17T10:48:27.190Z,67.40
2017-09-17T10:50:54.776Z,67.30
2017-09-17T10:53:22.366Z,73.20
2017-09-17T10:55:49.998Z,66.30
2017-09-17T10:58:17.585Z,73.90
2017-09-17T11:00:45.178Z,66.60
2017-09-17T11:03:14.418Z,68.50
2017-09-17T11:05:42.006Z,68.30
2017-09-17T11:08:09.618Z,64.20
2017-09-17T11:10:37.410Z,69.20
2017-09-17T11:13:04.993Z,65.40
2017-09-17T11:15:32.585Z,70.50
2017-09-17T11:18:00.199Z,63.00
2017-09-17T11:20:27.786Z,61.20
2017-09-17T11:22:55.554Z,63.20
2017-09-17T11:25:23.143Z,59.90
2017-09-17T11:27:51.489Z,59.40
2017-09-17T11:30:19.098Z,59.40
2017-09-17T11:32:46.694Z,60.00
2017-09-17T11:35:14.378Z,57.60
2017-09-17T11:37:41.981Z,58.60
2017-09-17T11:40:09.578Z,58.00
2017-09-17T11:42:37.158Z,55.30
2017-09-17T11:45:05.047Z,56.10
2017-09-17T11:47:33.398Z,54.50
2017-09-17T11:50:01.003Z,54.50
2017-09-17T11:52:28.615Z,54.70
2017-09-17T11:54:56.197Z,54.40
2017-09-17T11:57:24.546Z,56.60
2017-09-17T11:59:52.149Z,56.60
2017-09-17T12:02:19.755Z,58.00
2017-09-17T12:04:47.394Z,58.90
2017-09-17T12:07:15.060Z,58.90
2017-09-17T12:09:42.646Z,58.40
2017-09-17T12:12:10.260Z,60.10
2017-09-17T12:14:37.843Z,59.00
2017-09-17T12:17:05.431Z,57.70
2017-09-17T12:19:33.036Z,55.40
2017-09-17T12:22:00.621Z,55.80
2017-09-17T12:24:28.256Z,57.10
2017-09-17T12:26:55.834Z,56.50
2017-09-17T12:29:23.418Z,56.60
2017-09-17T12:31:51.041Z,57.00
2017-09-17T12:34:18.617Z,58.70
2017-09-17T12:36:46.198Z,58.70
2017-09-17T12:39:13.903Z,57.80
2017-09-17T12:44:18.218Z,58.10
2017-09-17T12:46:46.568Z,61.70
2017-09-17T12:49:14.146Z,61.70
2017-09-17T12:51:42.541Z,60.50
2017-09-17T12:54:10.128Z,60.50
2017-09-17T12:56:37.792Z,58.70
2017-09-17T13:01:42.127Z,59.40
2017-09-17T13:04:09.733Z,58.30
2017-09-17T13:06:38.125Z,58.10
2017-09-17T13:09:05.702Z,58.10
2017-09-17T13:11:33.287Z,57.80
2017-09-17T13:14:00.908Z,55.10
2017-09-17T13:16:28.505Z,56.30
2017-09-17T13:18:56.084Z,56.40
2017-09-17T13:21:23.859Z,57.30
2017-09-17T13:23:52.214Z,55.40
2017-09-17T13:26:19.794Z,55.40
2017-09-17T13:28:52.369Z,53.40
2017-09-17T13:31:19.946Z,53.70
2017-09-17T13:33:48.289Z,54.50
2017-09-17T13:36:15.890Z,54.60
2017-09-17T13:38:43.474Z,54.10
2017-09-17T13:41:11.126Z,54.10
2017-09-17T13:43:38.706Z,54.40
2017-09-17T13:46:06.285Z,54.80
2017-09-17T13:48:33.922Z,55.00
2017-09-17T13:51:01.518Z,57.60
2017-09-17T13:53:29.100Z,57.30
2017-09-17T13:55:56.954Z,56.40
2017-09-17T13:58:25.303Z,57.90
2017-09-17T14:00:52.882Z,57.80
2017-09-17T14:03:35.266Z,56.10
2017-09-17T14:06:16.702Z,56.30
2017-09-17T14:08:47.293Z,56.80
2017-09-17T14:11:14.869Z,58.20
2017-09-17T14:13:43.218Z,57.60
2017-09-17T14:16:10.853Z,57.60
2017-09-17T14:18:38.433Z,57.30
2017-09-17T14:21:06.013Z,56.90
2017-09-17T14:23:34.599Z,56.60
2017-09-17T14:26:02.190Z,56.50
2017-09-17T14:28:29.774Z,56.60
2017-09-17T14:30:57.582Z,56.50
2017-09-17T14:33:25.935Z,58.30
2017-09-17T14:35:53.522Z,58.30
2017-09-17T14:38:21.913Z,57.40
2017-09-17T14:40:49.510Z,57.40
2017-09-17T14:43:17.712Z,58.20
2017-09-17T14:45:45.317Z,57.90
2017-09-17T14:48:12.899Z,58.40
2017-09-17T14:50:40.486Z,58.50
2017-09-17T14:53:08.366Z,58.00
2017-09-17T14:55:36.713Z,57.90
2017-09-17T14:58:04.298Z,57.90
2017-09-17T15:00:32.713Z,59.60
2017-09-17T15:03:00.303Z,59.50
2017-09-17T15:05:27.886Z,60.90
2017-09-17T15:07:56.074Z,60.80
2017-09-17T15:10:23.679Z,61.40
2017-09-17T15:12:51.298Z,62.20
2017-09-17T15:15:19.686Z,64.80
2017-09-17T15:17:47.270Z,64.90
2017-09-17T15:20:14.850Z,67.00
2017-09-17T15:22:42.482Z,68.00
2017-09-17T15:25:10.066Z,66.10
2017-09-17T15:27:37.717Z,67.30
2017-09-17T15:30:06.147Z,66.90
2017-09-17T15:32:34.498Z,66.00
2017-09-17T15:35:02.082Z,66.10
2017-09-17T15:37:30.474Z,68.90
2017-09-17T15:39:58.054Z,68.80
2017-09-17T15:42:25.639Z,66.30
2017-09-17T15:44:53.543Z,68.70
2017-09-17T15:47:21.894Z,67.20
2017-09-17T15:49:49.473Z,67.20
2017-09-17T15:52:17.850Z,68.90
2017-09-17T15:54:46.191Z,68.20
2017-09-17T15:57:13.774Z,68.20
2017-09-17T15:59:41.401Z,69.20
2017-09-17T16:02:08.983Z,69.20
2017-09-17T16:04:36.570Z,70.30
2017-09-17T16:07:04.214Z,70.30
2017-09-17T16:09:31.791Z,70.50
2017-09-17T16:12:00.134Z,72.60
2017-09-17T16:14:27.767Z,72.70
2017-09-17T16:16:55.351Z,73.20
2017-09-17T16:19:22.944Z,71.60
2017-09-17T16:21:51.513Z,74.50
2017-09-17T16:24:19.862Z,74.20
2017-09-17T16:26:47.446Z,74.20
2017-09-17T16:29:16.042Z,74.50
2017-09-17T16:31:44.395Z,75.50
2017-09-17T16:34:11.970Z,75.40
2017-09-17T16:36:40.346Z,76.50
2017-09-17T16:39:08.698Z,77.30
2017-09-17T16:41:36.318Z,77.10
2017-09-17T16:44:03.910Z,76.30
2017-09-17T16:46:31.502Z,77.70
2017-09-17T16:49:00.086Z,79.20
2017-09-17T16:51:28.438Z,80.00
2017-09-17T16:53:56.022Z,80.00
2017-09-17T16:56:24.426Z,79.90
2017-09-17T16:58:52.014Z,79.80
2017-09-17T17:01:19.606Z,80.00
2017-09-17T17:03:48.201Z,79.30
2017-09-17T17:06:16.554Z,78.40
2017-09-17T17:08:44.138Z,78.40
2017-09-17T17:11:12.510Z,79.60
2017-09-17T17:13:40.862Z,79.80
2017-09-17T17:16:08.486Z,79.80
2017-09-17T17:18:36.068Z,80.30
2017-09-17T17:21:03.650Z,80.70
2017-09-17T17:23:31.376Z,81.00
2017-09-17T17:25:59.722Z,81.40
2017-09-17T17:28:27.306Z,81.40
2017-09-17T17:30:55.026Z,81.60
2017-09-17T17:33:23.370Z,80.60
2017-09-17T17:35:50.951Z,80.60
2017-09-17T17:38:18.579Z,81.50
2017-09-17T17:40:46.921Z,82.70
2017-09-17T17:43:14.553Z,82.70
2017-09-17T17:45:42.934Z,84.00
2017-09-17T17:48:11.282Z,84.40
2017-09-17T17:50:39.074Z,85.00
2017-09-17T17:53:07.427Z,85.30
2017-09-17T17:55:35.109Z,85.30
2017-09-17T17:58:03.594Z,87.30
2017-09-17T18:00:31.965Z,87.10
2017-09-17T18:03:00.311Z,87.10
2017-09-17T18:05:28.055Z,87.10
2017-09-17T18:07:55.661Z,87.30
2017-09-17T18:10:24.030Z,89.10
2017-09-17T18:12:52.018Z,89.00
2017-09-17T18:15:20.382Z,90.20
2017-09-17T18:17:48.755Z,89.70
2017-09-17T18:20:17.250Z,88.10
2017-09-17T18:22:45.629Z,90.70
2017-09-17T18:25:13.974Z,87.90
2017-09-17T18:27:42.392Z,87.10
2017-09-17T18:30:10.042Z,87.20
2017-09-17T18:32:38.517Z,88.20
2017-09-17T18:35:06.894Z,87.90
2017-09-17T18:37:35.250Z,88.10
2017-09-17T18:40:02.926Z,88.10
2017-09-17T18:42:31.382Z,89.00
2017-09-17T18:44:58.970Z,89.00
2017-09-17T18:47:27.542Z,88.70
2017-09-17T18:49:55.923Z,90.60
2017-09-17T18:52:24.277Z,91.80
2017-09-17T18:54:51.910Z,91.70
2017-09-17T18:57:19.535Z,91.60
2017-09-17T18:59:47.124Z,90.60
2017-09-17T19:02:14.750Z,87.50
2017-09-17T19:04:42.342Z,88.00
2017-09-17T19:07:10.039Z,85.30
2017-09-17T19:09:37.626Z,85.40
2017-09-17T19:12:05.977Z,87.10
2017-09-17T19:14:33.615Z,87.10
2017-09-17T19:17:01.198Z,86.90
2017-09-17T19:19:28.790Z,88.60
2017-09-17T19:21:56.411Z,90.00
2017-09-17T19:24:24.171Z,90.60
2017-09-17T19:26:51.757Z,87.20
2017-09-17T19:29:20.129Z,86.00
2017-09-17T19:31:48.474Z,90.40
2017-09-17T19:34:16.059Z,90.30
2017-09-17T19:36:43.686Z,85.90
2017-09-17T19:39:11.262Z,85.40
2017-09-17T19:41:38.844Z,86.50
2017-09-17T19:44:07.222Z,90.60
2017-09-17T19:46:35.588Z,90.00
2017-09-17T19:49:04.182Z,90.00
2017-09-17T19:51:32.563Z,92.00
2017-09-17T19:54:00.937Z,91.40
2017-09-17T19:56:29.451Z,85.90
2017-09-17T19:58:57.083Z,85.90
2017-09-17T20:01:25.667Z,86.90
2017-09-17T20:03:54.014Z,90.60
2017-09-17T20:06:21.595Z,90.60
2017-09-17T20:08:50.006Z,91.60
2017-09-17T20:11:17.590Z,91.60
2017-09-17T20:13:45.174Z,91.00
2017-09-17T20:16:12.846Z,90.30
2017-09-17T20:18:41.198Z,85.00
2017-09-17T20:21:08.890Z,84.90
2017-09-17T20:23:37.266Z,87.20
2017-09-17T20:26:05.642Z,91.00
2017-09-17T20:28:33.991Z,90.70
2017-09-17T20:31:01.686Z,90.70
2017-09-17T20:33:30.038Z,85.40
2017-09-17T20:35:57.713Z,85.30
2017-09-17T20:38:26.082Z,90.40
2017-09-17T20:40:54.474Z,90.70
2017-09-17T20:43:22.830Z,90.10
2017-09-17T20:45:50.442Z,90.10
2017-09-17T20:48:18.022Z,90.00
2017-09-17T20:50:45.627Z,90.40
2017-09-17T20:53:14.201Z,86.60
2017-09-17T20:55:42.591Z,86.20
2017-09-17T20:58:10.970Z,82.70
2017-09-17T21:00:39.437Z,82.20
2017-09-17T21:03:07.822Z,89.50
2017-09-17T21:05:36.170Z,86.00
2017-09-17T21:08:03.863Z,85.90
2017-09-17T21:10:32.214Z,87.30
2017-09-17T21:12:59.831Z,86.60
2017-09-17T21:15:27.470Z,87.40
2017-09-17T21:17:55.055Z,91.50
2017-09-17T21:20:22.642Z,87.70
2017-09-17T21:22:50.278Z,89.40
2017-09-17T21:25:17.857Z,90.70
2017-09-17T21:27:45.439Z,87.00
2017-09-17T21:30:13.038Z,89.50
2017-09-17T21:32:40.626Z,88.90
2017-09-17T21:35:08.330Z,85.60
2017-09-17T21:37:36.684Z,90.10
2017-09-17T21:40:04.271Z,90.00
2017-09-17T21:42:32.742Z,91.60
2017-09-17T21:45:01.125Z,91.30
2017-09-17T21:47:29.498Z,92.20
2017-09-17T21:49:57.885Z,90.90
2017-09-17T21:52:25.538Z,90.90
2017-09-17T21:54:53.894Z,77.90
2017-09-17T21:57:21.674Z,77.80
2017-09-17T21:59:50.058Z,88.00
2017-09-17T22:02:18.406Z,80.50
2017-09-17T22:04:46.198Z,80.60
2017-09-17T22:07:13.794Z,86.70
2017-09-17T22:09:41.382Z,92.00
2017-09-17T22:12:09.022Z,90.10
2017-09-17T22:14:36.606Z,91.60
2017-09-17T22:17:04.186Z,91.50
2017-09-17T22:19:32.778Z,80.20
2017-09-17T22:22:00.433Z,80.20
2017-09-17T22:24:28.805Z,80.70
2017-09-17T22:26:57.177Z,79.90
2017-09-17T22:29:25.570Z,80.70
